KMEIKVLD

Guest
Details From KMEI - Key Fld
To KVLD - Valdosta Rgnl
Flight Number -
Tags Decoded
Created
Modified
Stats Distance 298 nm / 553 km
Max Altitude 0 ft / 0 m
Waypoints 2
Social Downloads 1
Likes 0
Share VATSIM

Download

Looking for another format? Having issues loading an existing format? Contact us
Advertisement - Login to hide

Notes

Decoded

Route

MEI OTK

ID Type Via Altitude Latitude Longitude Leg Dist Tot Dist Heading (true) Name
O MEI VOR - 0 ft / 0 m 32.37844˚ -88.80425˚ - 0 nm - MERIDIAN VORTAC
O OTK VOR - 0 ft / 0 m 30.78044˚ -83.27972˚ 298 nm 298 nm 107° / 110° VALDOSTA VOR-DME

Altitude Profile

Advertisement - Login to hide

Weather


0- 5 10 15 20 25 30 35+ Temperature / ° C

Clouds and Precipitation
Forecast for 2017-12-14 06:00 UTC. Updated 2 hours ago

Ground ~20,000 ft ~40,000 ft Winds

KMEI

Details ICAO KMEI (MEI)
Name KEY FLD
Region United States
Timezone America/Chicago (UTC-6.0)
Stats Elevation 297 ft / 91 m (AMSL)
Location 32.333412° -88.750738°
Runways 2
Magnetic Variation 1.954° W

METAR

KMEI 140358Z 21007KT 10SM CLR 04/00 A2995 RMK AO2 SLP142 T00440000

Decode

TAF

KMEI 132330Z 1400/1424 19010KT P6SM SKC FM141800 31004KT P6SM SKC

Decode

Departure Runways

ID Width Length Bearing (true) Bearing (mag) Surface Threshold Offset Overrun Length
01 150 ft / 46 m 10,030 ft / 3,057 m 9.24° 11.19° Asphalt 1,000 ft / 305 m 1,000 ft / 305 m
04 150 ft / 46 m 4,602 ft / 1,403 m 43.85° 45.80° Asphalt 0 ft / 0 m 0 ft / 0 m
19 150 ft / 46 m 10,030 ft / 3,057 m 189.24° 191.19° Asphalt 1,000 ft / 305 m 1,000 ft / 305 m
22 150 ft / 46 m 4,602 ft / 1,403 m 223.86° 225.81° Asphalt 0 ft / 0 m 0 ft / 0 m

KVLD

Details ICAO KVLD (VLD)
Name VALDOSTA RGNL
Region United States
Timezone America/New_York (UTC-5.0)
Stats Elevation 203 ft / 62 m (AMSL)
Location 30.782353° -83.276908°
Runways 3
Magnetic Variation 5.471° W

METAR

KVLD 140353Z 22003KT 10SM CLR 06/01 A2999 RMK AO2 SLP165 T00610011

Decode

TAF

TAF KVLD 132320Z 1400/1424 24004KT P6SM SCT250= TAF KLFT 132320Z 1400/1424 23004KT P6SM BKN250

Decode

Destination Runways

ID Width Length Bearing (true) Bearing (mag) Surface Threshold Offset Overrun Length
04 100 ft / 30 m 5,606 ft / 1,709 m 35.68° 41.15° Asphalt 0 ft / 0 m 0 ft / 0 m
13 75 ft / 23 m 3,637 ft / 1,108 m 125.97° 131.44° Asphalt 0 ft / 0 m 0 ft / 0 m
17 150 ft / 46 m 6,322 ft / 1,927 m 170.87° 176.34° Asphalt 0 ft / 0 m 0 ft / 0 m
22 100 ft / 30 m 5,606 ft / 1,709 m 215.68° 221.15° Asphalt 0 ft / 0 m 0 ft / 0 m
31 75 ft / 23 m 3,637 ft / 1,108 m 305.97° 311.44° Asphalt 0 ft / 0 m 0 ft / 0 m
35 150 ft / 46 m 6,322 ft / 1,927 m 350.87° 356.34° Asphalt 0 ft / 0 m 0 ft / 0 m

Approach Navaids

Runway Type Ident Frequency Range Bearing (true) Bearing (mag) Slope Elevation
35 Localiser IVLD 110.90 MHz 18 nm / 33 km 350.87° 356.34° - 203 ft / 62 m (AMSL)
35 Glidescope IVLD 110.90 MHz 10 nm / 19 km 350.87° 356.34° 3.00° 197 ft / 60 m (AMSL)